Wetterdaten: Woche 06.01.14 - 12.01.14 (KW2)
Datum Zeit Temp. A. Feuchte A. Luftdruck Regen Wind Richtung Taupunkt Windchill Windben
06.01.2014 00:00 7,2 C 78 % 1016,4 hPa 0,0 l/m 5,6 km/h N 3,6 C 7,2 C 16,9 km/h
06.01.2014 01:00 7,1 C 78 % 1016,7 hPa 0,0 l/m 3,4 km/h N 3,6 C 7,1 C 10,5 km/h
06.01.2014 02:00 7,2 C 77 % 1017,4 hPa 0,0 l/m 5,2 km/h N 3,4 C 7,1 C 16,1 km/h
06.01.2014 03:00 7,0 C 78 % 1017,6 hPa 0,0 l/m 0,3 km/h N 3,3 C 7,0 C 3,2 km/h
06.01.2014 04:00 6,3 C 80 % 1018,0 hPa 0,0 l/m 0,5 km/h N 3,0 C 6,3 C 4,0 km/h
06.01.2014 05:00 6,1 C 80 % 1018,2 hPa 0,0 l/m 0,3 km/h N 2,9 C 6,1 C 3,6 km/h
06.01.2014 06:00 4,6 C 81 % 1018,5 hPa 0,0 l/m 0,1 km/h N 1,6 C 4,6 C 1,2 km/h
06.01.2014 07:00 3,0 C 83 % 1018,9 hPa 0,0 l/m 0,3 km/h N 0,5 C 3,0 C 2,4 km/h
06.01.2014 08:00 2,4 C 85 % 1019,4 hPa 0,0 l/m 0,0 km/h N 0,1 C 2,4 C 0,4 km/h
06.01.2014 09:00 3,9 C 84 % 1019,9 hPa 0,0 l/m 0,2 km/h N 1,5 C 3,9 C 2,4 km/h
06.01.2014 10:00 7,1 C 83 % 1019,8 hPa 0,0 l/m 0,1 km/h N 4,5 C 7,1 C 2,0 km/h
06.01.2014 11:00 9,4 C 72 % 1019,3 hPa 0,0 l/m 1,8 km/h N 4,6 C 9,4 C 7,2 km/h
06.01.2014 12:00 9,6 C 68 % 1018,8 hPa 0,0 l/m 2,3 km/h N 3,9 C 9,6 C 8,4 km/h
06.01.2014 13:00 10,0 C 68 % 1018,4 hPa 0,0 l/m 3,4 km/h N 4,3 C 10,0 C 10,1 km/h
06.01.2014 14:00 10,0 C 70 % 1018,3 hPa 0,0 l/m 1,1 km/h N 4,8 C 10,0 C 6,0 km/h
06.01.2014 15:00 9,4 C 72 % 1018,6 hPa 0,0 l/m 0,1 km/h N 4,6 C 9,4 C 2,4 km/h
06.01.2014 16:00 7,3 C 73 % 1018,8 hPa 0,0 l/m 0,0 km/h N 2,7 C 7,3 C 1,2 km/h
06.01.2014 17:00 4,3 C 78 % 1018,9 hPa 0,0 l/m 0,0 km/h N 0,8 C 4,3 C 0,0 km/h
06.01.2014 18:00 2,4 C 82 % 1018,8 hPa 0,0 l/m 0,0 km/h N -0,3 C 2,4 C 0,0 km/h
06.01.2014 19:00 1,3 C 84 % 1018,8 hPa 0,0 l/m 0,0 km/h N -1,1 C 1,3 C 0,0 km/h
06.01.2014 20:00 0,6 C 85 % 1019,0 hPa 0,0 l/m 0,0 km/h N -1,6 C 0,6 C 0,0 km/h
06.01.2014 21:00 0,1 C 86 % 1018,8 hPa 0,0 l/m 0,0 km/h N -2,0 C 0,1 C 0,0 km/h
06.01.2014 22:00 -0,7 C 86 % 1017,9 hPa 0,0 l/m 0,0 km/h N -2,7 C -0,7 C 0,0 km/h
06.01.2014 23:00 -1,1 C 85 % 1017,9 hPa 0,0 l/m 0,0 km/h N -3,2 C -1,1 C 0,0 km/h
07.01.2014 00:00 0,1 C 84 % 1017,7 hPa 0,0 l/m 0,1 km/h N -2,3 C 0,1 C 0,8 km/h
07.01.2014 01:00 1,3 C 82 % 1017,4 hPa 0,0 l/m 0,1 km/h N -1,3 C 1,3 C 1,2 km/h
07.01.2014 02:00 1,9 C 82 % 1017,3 hPa 0,0 l/m 0,0 km/h N -0,9 C 1,9 C 0,0 km/h
07.01.2014 03:00 2,4 C 81 % 1017,3 hPa 0,0 l/m 0,2 km/h N -0,5 C 2,4 C 1,2 km/h
07.01.2014 04:00 3,1 C 80 % 1017,9 hPa 0,3 l/m 0,0 km/h N 0,0 C 3,1 C 0,4 km/h
07.01.2014 05:00 3,5 C 80 % 1018,7 hPa 0,0 l/m 0,9 km/h N 0,4 C 3,5 C 3,6 km/h
07.01.2014 06:00 3,3 C 80 % 1020,3 hPa 0,0 l/m 4,7 km/h N 0,2 C 3,2 C 14,9 km/h
07.01.2014 07:00 3,0 C 80 % 1021,0 hPa 0,0 l/m 1,4 km/h N -0,1 C 3,0 C 6,4 km/h
07.01.2014 08:00 3,3 C 80 % 1021,7 hPa 0,0 l/m 0,3 km/h N 0,1 C 3,3 C 2,8 km/h
07.01.2014 09:00 3,6 C 79 % 1022,3 hPa 0,0 l/m 0,1 km/h N 0,3 C 3,6 C 1,6 km/h
07.01.2014 10:00 4,0 C 79 % 1023,1 hPa 0,0 l/m 0,7 km/h N 0,7 C 4,0 C 4,4 km/h
07.01.2014 11:00 4,3 C 79 % 1023,2 hPa 0,0 l/m 1,2 km/h N 1,0 C 4,3 C 5,6 km/h
07.01.2014 12:00 4,5 C 80 % 1023,0 hPa 0,0 l/m 0,9 km/h N 1,3 C 4,5 C 4,8 km/h
07.01.2014 13:00 4,7 C 80 % 1022,8 hPa 0,0 l/m 2,0 km/h N 1,6 C 4,7 C 7,2 km/h
07.01.2014 14:00 5,1 C 81 % 1023,0 hPa 0,0 l/m 2,2 km/h N 2,1 C 5,1 C 6,8 km/h
07.01.2014 15:00 5,3 C 83 % 1023,1 hPa 0,0 l/m 1,1 km/h N 2,6 C 5,3 C 5,9 km/h
07.01.2014 16:00 4,9 C 84 % 1023,6 hPa 0,0 l/m 2,2 km/h N 2,4 C 4,9 C 6,8 km/h
07.01.2014 17:00 4,7 C 84 % 1023,7 hPa 0,0 l/m 1,0 km/h N 2,2 C 4,7 C 5,6 km/h
07.01.2014 18:00 3,7 C 85 % 1023,8 hPa 0,0 l/m 0,1 km/h N 1,4 C 3,7 C 1,6 km/h
07.01.2014 19:00 1,8 C 85 % 1023,9 hPa 0,0 l/m 0,0 km/h N -0,5 C 1,8 C 0,0 km/h
07.01.2014 20:00 2,0 C 84 % 1024,0 hPa 0,0 l/m 0,1 km/h N -0,5 C 2,0 C 1,2 km/h
07.01.2014 21:00 3,8 C 82 % 1024,1 hPa 0,0 l/m 2,7 km/h N 0,9 C 3,8 C 10,5 km/h
07.01.2014 22:00 3,9 C 81 % 1023,8 hPa 0,0 l/m 2,3 km/h N 1,0 C 3,9 C 8,0 km/h
07.01.2014 23:00 4,1 C 80 % 1023,3 hPa 0,0 l/m 4,3 km/h N 0,9 C 4,1 C 14,1 km/h
08.01.2014 00:00 3,9 C 80 % 1023,2 hPa 0,0 l/m 3,4 km/h N 0,7 C 3,9 C 10,1 km/h
08.01.2014 01:00 3,6 C 80 % 1022,9 hPa 0,0 l/m 1,9 km/h N 0,5 C 3,6 C 7,6 km/h
08.01.2014 02:00 3,3 C 80 % 1023,4 hPa 0,0 l/m 0,9 km/h N 0,2 C 3,3 C 4,4 km/h
08.01.2014 03:00 3,3 C 79 % 1023,5 hPa 0,0 l/m 1,5 km/h N 0,0 C 3,3 C 6,0 km/h
08.01.2014 04:00 3,2 C 79 % 1023,2 hPa 0,0 l/m 0,8 km/h N -0,1 C 3,2 C 4,8 km/h
08.01.2014 05:00 3,1 C 79 % 1023,3 hPa 0,0 l/m 1,7 km/h N -0,2 C 3,1 C 6,4 km/h
08.01.2014 06:00 2,9 C 79 % 1024,0 hPa 0,0 l/m 0,7 km/h N -0,4 C 2,9 C 5,2 km/h
08.01.2014 07:00 2,8 C 79 % 1024,6 hPa 0,0 l/m 0,2 km/h N -0,5 C 2,8 C 2,4 km/h
08.01.2014 08:00 2,8 C 79 % 1025,2 hPa 0,0 l/m 0,2 km/h N -0,5 C 2,8 C 2,8 km/h
08.01.2014 09:00 2,8 C 79 % 1025,5 hPa 0,0 l/m 0,1 km/h N -0,4 C 2,8 C 2,0 km/h
08.01.2014 10:00 3,2 C 79 % 1025,5 hPa 0,0 l/m 0,6 km/h N -0,1 C 3,2 C 4,4 km/h
08.01.2014 11:00 3,4 C 79 % 1024,8 hPa 0,0 l/m 1,9 km/h N 0,1 C 3,4 C 7,2 km/h
08.01.2014 12:00 3,5 C 79 % 1024,2 hPa 0,0 l/m 2,8 km/h N 0,3 C 3,5 C 7,6 km/h
08.01.2014 13:00 3,9 C 79 % 1024,1 hPa 0,0 l/m 2,2 km/h N 0,6 C 3,9 C 8,4 km/h
08.01.2014 14:00 3,9 C 80 % 1023,8 hPa 0,0 l/m 2,5 km/h N 0,8 C 3,9 C 8,4 km/h
08.01.2014 15:00 3,7 C 81 % 1024,0 hPa 0,0 l/m 2,9 km/h N 0,8 C 3,7 C 10,0 km/h
08.01.2014 16:00 3,3 C 81 % 1024,2 hPa 0,0 l/m 3,6 km/h N 0,4 C 3,3 C 9,7 km/h
08.01.2014 17:00 3,1 C 81 % 1024,3 hPa 0,0 l/m 3,1 km/h N 0,2 C 3,1 C 10,1 km/h
08.01.2014 18:00 3,0 C 81 % 1024,3 hPa 0,0 l/m 1,3 km/h N 0,0 C 3,0 C 6,8 km/h
08.01.2014 19:00 2,9 C 80 % 1024,6 hPa 0,0 l/m 0,7 km/h N -0,3 C 2,9 C 4,0 km/h
08.01.2014 20:00 2,7 C 80 % 1024,9 hPa 0,0 l/m 0,2 km/h N -0,4 C 2,7 C 2,8 km/h
08.01.2014 21:00 2,6 C 80 % 1025,0 hPa 0,0 l/m 0,3 km/h N -0,5 C 2,6 C 2,8 km/h
08.01.2014 22:00 2,5 C 80 % 1024,9 hPa 0,0 l/m 0,8 km/h N -0,6 C 2,5 C 4,4 km/h
08.01.2014 23:00 2,3 C 80 % 1024,5 hPa 0,0 l/m 1,4 km/h N -0,7 C 2,3 C 5,6 km/h
09.01.2014 00:00 1,6 C 80 % 1023,9 hPa 0,0 l/m 0,3 km/h N -1,4 C 1,6 C 2,4 km/h
09.01.2014 01:00 1,6 C 80 % 1023,3 hPa 0,0 l/m 0,4 km/h N -1,5 C 1,6 C 3,6 km/h
09.01.2014 02:00 1,8 C 80 % 1023,2 hPa 0,0 l/m 0,5 km/h N -1,4 C 1,8 C 4,4 km/h
09.01.2014 03:00 1,9 C 80 % 1022,7 hPa 0,0 l/m 0,4 km/h N -1,3 C 1,9 C 2,8 km/h
09.01.2014 04:00 1,9 C 79 % 1022,2 hPa 0,0 l/m 0,4 km/h N -1,3 C 1,9 C 4,8 km/h
09.01.2014 05:00 1,8 C 79 % 1021,6 hPa 0,0 l/m 1,5 km/h N -1,4 C 1,8 C 6,8 km/h
09.01.2014 06:00 1,7 C 79 % 1020,9 hPa 0,0 l/m 2,4 km/h N -1,6 C 1,7 C 8,9 km/h
09.01.2014 07:00 1,7 C 79 % 1020,6 hPa 0,3 l/m 1,8 km/h N -1,6 C 1,7 C 8,4 km/h
09.01.2014 08:00 1,6 C 79 % 1020,4 hPa 0,0 l/m 1,8 km/h N -1,6 C 1,6 C 7,6 km/h
09.01.2014 09:00 1,5 C 79 % 1020,2 hPa 0,0 l/m 1,8 km/h N -1,7 C 1,5 C 8,0 km/h
09.01.2014 10:00 1,7 C 79 % 1019,6 hPa 0,0 l/m 1,6 km/h N -1,5 C 1,7 C 10,5 km/h
09.01.2014 11:00 1,7 C 79 % 1018,8 hPa 0,0 l/m 2,4 km/h N -1,5 C 1,7 C 9,7 km/h
09.01.2014 12:00 1,9 C 78 % 1018,2 hPa 0,0 l/m 0,8 km/h N -1,5 C 1,9 C 7,3 km/h
09.01.2014 13:00 2,3 C 78 % 1017,3 hPa 0,0 l/m 1,6 km/h N -1,1 C 2,3 C 7,2 km/h
09.01.2014 14:00 2,5 C 78 % 1016,8 hPa 0,0 l/m 1,6 km/h N -1,0 C 2,5 C 6,4 km/h
09.01.2014 15:00 2,8 C 78 % 1016,5 hPa 0,0 l/m 1,6 km/h N -0,6 C 2,8 C 6,4 km/h
09.01.2014 16:00 3,3 C 78 % 1016,3 hPa 0,0 l/m 1,5 km/h N -0,2 C 3,3 C 5,9 km/h
09.01.2014 17:00 3,6 C 78 % 1015,7 hPa 0,0 l/m 1,6 km/h N 0,1 C 3,6 C 8,4 km/h
09.01.2014 18:00 3,7 C 78 % 1015,3 hPa 0,0 l/m 2,1 km/h N 0,2 C 3,7 C 7,6 km/h
09.01.2014 19:00 3,7 C 78 % 1014,8 hPa 0,0 l/m 2,9 km/h N 0,2 C 3,7 C 10,9 km/h
09.01.2014 20:00 3,6 C 78 % 1014,4 hPa 0,0 l/m 3,3 km/h N 0,1 C 3,6 C 10,9 km/h
09.01.2014 21:00 3,6 C 78 % 1014,2 hPa 0,0 l/m 2,4 km/h N 0,1 C 3,6 C 8,4 km/h
09.01.2014 22:00 3,4 C 78 % 1013,4 hPa 0,0 l/m 3,2 km/h N -0,0 C 3,4 C 13,3 km/h
09.01.2014 23:00 3,3 C 78 % 1012,6 hPa 0,0 l/m 3,1 km/h N -0,1 C 3,3 C 12,1 km/h
10.01.2014 00:00 3,2 C 78 % 1011,9 hPa 0,0 l/m 3,0 km/h N -0,2 C 3,2 C 9,7 km/h
10.01.2014 01:00 3,1 C 78 % 1011,9 hPa 0,0 l/m 2,3 km/h N -0,4 C 3,1 C 8,9 km/h
10.01.2014 02:00 3,1 C 78 % 1011,9 hPa 0,0 l/m 1,5 km/h N -0,3 C 3,1 C 6,0 km/h
10.01.2014 03:00 3,0 C 78 % 1011,3 hPa 0,0 l/m 1,6 km/h N -0,5 C 3,0 C 8,4 km/h
10.01.2014 04:00 4,4 C 77 % 1012,6 hPa 0,0 l/m 9,2 km/h N 0,6 C 1,8 C 23,3 km/h
10.01.2014 05:00 7,3 C 83 % 1013,5 hPa 0,0 l/m 13,9 km/h N 4,7 C 2,5 C 29,8 km/h
10.01.2014 06:00 7,8 C 77 % 1013,5 hPa 0,0 l/m 16,2 km/h N 3,9 C 2,0 C 44,3 km/h
10.01.2014 07:00 7,8 C 72 % 1014,4 hPa 0,0 l/m 20,4 km/h N 3,0 C 0,3 C 41,8 km/h
10.01.2014 08:00 7,5 C 72 % 1015,3 hPa 0,0 l/m 22,0 km/h N 2,9 C -0,6 C 43,0 km/h
10.01.2014 09:00 7,6 C 71 % 1016,8 hPa 0,0 l/m 20,9 km/h N 2,6 C -0,1 C 44,3 km/h
10.01.2014 10:00 7,9 C 69 % 1017,9 hPa 0,0 l/m 19,6 km/h N 2,5 C 0,7 C 39,4 km/h
10.01.2014 11:00 8,6 C 65 % 1018,6 hPa 0,0 l/m 16,6 km/h N 2,3 C 2,8 C 35,8 km/h
10.01.2014 12:00 8,7 C 62 % 1018,5 hPa 0,0 l/m 11,3 km/h N 1,7 C 5,4 C 28,2 km/h
10.01.2014 13:00 8,9 C 59 % 1018,2 hPa 0,0 l/m 13,5 km/h N 1,2 C 4,5 C 31,8 km/h
10.01.2014 14:00 8,9 C 62 % 1018,5 hPa 0,0 l/m 8,9 km/h N 1,9 C 7,2 C 26,5 km/h
10.01.2014 15:00 8,4 C 63 % 1018,9 hPa 0,0 l/m 7,1 km/h N 1,7 C 7,7 C 24,1 km/h
10.01.2014 16:00 7,7 C 63 % 1019,1 hPa 0,0 l/m 7,1 km/h N 1,1 C 7,1 C 19,3 km/h
10.01.2014 17:00 7,3 C 65 % 1019,4 hPa 0,0 l/m 7,1 km/h N 1,1 C 6,6 C 20,1 km/h
10.01.2014 18:00 7,2 C 64 % 1019,8 hPa 0,0 l/m 5,2 km/h N 0,9 C 7,2 C 19,7 km/h
10.01.2014 19:00 6,8 C 66 % 1020,3 hPa 0,0 l/m 3,5 km/h N 1,0 C 6,8 C 14,5 km/h
10.01.2014 20:00 5,9 C 68 % 1020,5 hPa 0,0 l/m 1,3 km/h N 0,5 C 5,9 C 6,0 km/h
10.01.2014 21:00 4,9 C 72 % 1020,9 hPa 0,0 l/m 1,3 km/h N 0,3 C 4,9 C 5,6 km/h
10.01.2014 22:00 3,6 C 74 % 1021,1 hPa 0,0 l/m 0,5 km/h N -0,5 C 3,6 C 2,8 km/h
10.01.2014 23:00 2,6 C 78 % 1020,9 hPa 0,0 l/m 0,7 km/h N -0,8 C 2,6 C 4,0 km/h
11.01.2014 00:00 1,9 C 79 % 1020,9 hPa 0,0 l/m 0,2 km/h N -1,4 C 1,9 C 2,0 km/h
11.01.2014 01:00 0,6 C 81 % 1020,8 hPa 0,0 l/m 0,1 km/h N -2,3 C 0,6 C 1,6 km/h
11.01.2014 02:00 -0,6 C 83 % 1021,1 hPa 0,0 l/m 0,2 km/h N -3,1 C -0,6 C 2,4 km/h
11.01.2014 03:00 -0,4 C 85 % 1020,9 hPa 0,0 l/m 1,0 km/h N -2,7 C -0,4 C 4,4 km/h
11.01.2014 04:00 0,4 C 85 % 1020,5 hPa 0,0 l/m 0,9 km/h N -1,9 C 0,4 C 4,8 km/h
11.01.2014 05:00 0,5 C 85 % 1020,5 hPa 0,0 l/m 1,7 km/h N -1,7 C 0,5 C 5,6 km/h
11.01.2014 06:00 0,6 C 84 % 1020,6 hPa 0,0 l/m 0,7 km/h N -1,8 C 0,6 C 4,4 km/h
11.01.2014 07:00 -0,4 C 84 % 1020,8 hPa 0,0 l/m 0,0 km/h N -2,7 C -0,4 C 0,4 km/h
11.01.2014 08:00 -0,3 C 85 % 1020,9 hPa 0,0 l/m 0,0 km/h N -2,6 C -0,3 C 0,0 km/h
11.01.2014 09:00 0,4 C 86 % 1020,8 hPa 0,0 l/m 0,1 km/h N -1,7 C 0,4 C 0,8 km/h
11.01.2014 10:00 1,6 C 86 % 1020,7 hPa 0,0 l/m 0,0 km/h N -0,4 C 1,6 C 0,4 km/h
11.01.2014 11:00 3,3 C 84 % 1020,0 hPa 0,0 l/m 0,1 km/h N 0,8 C 3,3 C 2,4 km/h
11.01.2014 12:00 6,1 C 78 % 1019,3 hPa 0,0 l/m 0,9 km/h N 2,4 C 6,1 C 5,6 km/h
11.01.2014 13:00 6,8 C 76 % 1018,6 hPa 0,0 l/m 2,5 km/h N 2,9 C 6,8 C 8,4 km/h
11.01.2014 14:00 7,5 C 79 % 1018,0 hPa 0,0 l/m 3,9 km/h N 4,1 C 7,5 C 10,5 km/h
11.01.2014 15:00 7,1 C 81 % 1017,9 hPa 0,0 l/m 2,9 km/h N 4,0 C 7,1 C 8,0 km/h
11.01.2014 16:00 6,5 C 83 % 1017,7 hPa 0,0 l/m 1,6 km/h N 3,8 C 6,5 C 6,4 km/h
11.01.2014 17:00 5,9 C 84 % 1017,9 hPa 0,0 l/m 0,3 km/h N 3,3 C 5,9 C 3,6 km/h
11.01.2014 18:00 4,0 C 83 % 1018,0 hPa 0,0 l/m 0,0 km/h N 1,4 C 4,0 C 0,4 km/h
11.01.2014 19:00 2,8 C 85 % 1018,0 hPa 0,0 l/m 0,0 km/h N 0,5 C 2,8 C 0,8 km/h
11.01.2014 20:00 2,3 C 86 % 1018,0 hPa 0,0 l/m 0,3 km/h N 0,1 C 2,3 C 2,8 km/h
11.01.2014 21:00 5,8 C 82 % 1017,6 hPa 0,0 l/m 4,5 km/h N 3,0 C 5,4 C 21,7 km/h
11.01.2014 22:00 9,6 C 77 % 1017,3 hPa 0,0 l/m 15,4 km/h N 5,9 C 4,6 C 35,0 km/h
11.01.2014 23:00 9,0 C 80 % 1017,6 hPa 0,0 l/m 16,1 km/h N 5,6 C 3,6 C 37,0 km/h
12.01.2014 00:00 8,9 C 77 % 1017,8 hPa 0,0 l/m 9,1 km/h N 5,1 C 7,0 C 29,0 km/h
12.01.2014 01:00 8,7 C 74 % 1018,5 hPa 0,0 l/m 8,8 km/h N 4,2 C 6,9 C 27,4 km/h
12.01.2014 02:00 8,8 C 72 % 1019,7 hPa 0,0 l/m 8,8 km/h N 3,9 C 7,0 C 24,9 km/h
12.01.2014 03:00 7,9 C 76 % 1020,5 hPa 0,0 l/m 6,5 km/h N 3,9 C 7,8 C 20,9 km/h
12.01.2014 04:00 7,1 C 77 % 1020,9 hPa 0,0 l/m 4,7 km/h N 3,2 C 7,1 C 18,9 km/h
12.01.2014 05:00 6,1 C 74 % 1021,6 hPa 0,0 l/m 2,5 km/h N 1,8 C 6,1 C 12,5 km/h
12.01.2014 06:00 4,9 C 76 % 1022,5 hPa 0,0 l/m 0,4 km/h N 1,0 C 4,9 C 3,6 km/h
12.01.2014 07:00 5,4 C 76 % 1023,4 hPa 0,0 l/m 4,7 km/h N 1,5 C 5,4 C 16,9 km/h
12.01.2014 08:00 5,2 C 73 % 1024,1 hPa 0,0 l/m 6,5 km/h N 0,6 C 4,8 C 18,9 km/h
12.01.2014 09:00 5,5 C 71 % 1024,2 hPa 0,0 l/m 8,4 km/h N 0,6 C 3,8 C 19,7 km/h
12.01.2014 10:00 6,2 C 65 % 1024,2 hPa 0,0 l/m 8,6 km/h N 0,1 C 4,4 C 22,1 km/h
12.01.2014 11:00 7,0 C 59 % 1023,9 hPa 0,0 l/m 11,3 km/h N -0,4 C 3,5 C 28,6 km/h
12.01.2014 12:00 7,4 C 58 % 1023,5 hPa 0,0 l/m 10,2 km/h N -0,3 C 4,6 C 23,3 km/h
12.01.2014 13:00 8,1 C 55 % 1023,0 hPa 0,0 l/m 8,7 km/h N -0,4 C 6,3 C 20,1 km/h
12.01.2014 14:00 8,0 C 55 % 1022,7 hPa 0,0 l/m 8,5 km/h N -0,5 C 6,4 C 21,7 km/h
12.01.2014 15:00 7,1 C 55 % 1022,7 hPa 0,0 l/m 7,7 km/h N -1,4 C 5,9 C 18,1 km/h
12.01.2014 16:00 5,9 C 57 % 1022,5 hPa 0,0 l/m 1,2 km/h N -2,1 C 5,9 C 5,6 km/h
12.01.2014 17:00 4,3 C 62 % 1022,6 hPa 0,0 l/m 1,0 km/h N -2,3 C 4,3 C 6,4 km/h
12.01.2014 18:00 4,0 C 62 % 1022,6 hPa 0,0 l/m 0,6 km/h N -2,7 C 4,0 C 4,8 km/h
12.01.2014 19:00 3,4 C 67 % 1022,7 hPa 0,0 l/m 0,3 km/h N -2,3 C 3,4 C 4,0 km/h
12.01.2014 20:00 1,2 C 70 % 1022,8 hPa 0,0 l/m 0,0 km/h N -3,7 C 1,2 C 0,4 km/h
12.01.2014 21:00 -0,9 C 77 % 1022,5 hPa 0,0 l/m 0,1 km/h N -4,4 C -0,9 C 0,8 km/h
12.01.2014 22:00 0,2 C 83 % 1022,0 hPa 0,0 l/m 0,5 km/h N -2,3 C 0,2 C 2,8 km/h
12.01.2014 23:00 -0,2 C 81 % 1021,9 hPa 0,0 l/m 0,1 km/h N -3,0 C -0,2 C 2,0 km/h
Min-Datum _ 12.01.14 12.01.14 10.01.14 - 06.01.14 - 12.01.14 10.01.14 06.01.14
_ Min-Zeit 21:45 13:30 03:15 - 03:15 - 21:30 08:30 06:30
Minimum _ -1,4 C 54 % 1011,1 hPa - 0,0 km/h - -4,4 C -1,4 C 0,0 km/h
Max-Datum _ 06.01.14 06.01.14 08.01.14 07.01.14 10.01.14 - 11.01.14 06.01.14 10.01.14
_ Max-Zeit 13:45 20:45 09:30 04:30 08:30 - 22:45 14:15 07:15
Maximum _ 10,2 C 86 % 1025,7 hPa 0,3 l/m 24,5 km/h
N
- 6,0 C 10,2 C 53,1 km/h
N
Durchschnitt _ 4,2 C 77 % 1020,2 hPa #0,5 l/m 3,1 km/h N 0,5 C 3,6 C 9,5 km/h